sensor_id;sensor_type;location;lat;lon;timestamp;P1;durP1;ratioP1;P2;durP2;ratioP2
63699;SDS011;49845;47.130;142.766;2024-03-06T00:00:49;11.60;;;5.57;;
63699;SDS011;49845;47.130;142.766;2024-03-06T00:03:22;14.80;;;5.15;;
63699;SDS011;49845;47.130;142.766;2024-03-06T00:05:55;8.57;;;5.55;;
63699;SDS011;49845;47.130;142.766;2024-03-06T00:08:28;9.95;;;4.82;;
63699;SDS011;49845;47.130;142.766;2024-03-06T00:11:00;14.15;;;5.30;;
63699;SDS011;49845;47.130;142.766;2024-03-06T00:13:35;11.15;;;4.75;;
63699;SDS011;49845;47.130;142.766;2024-03-06T00:16:08;20.02;;;5.20;;
63699;SDS011;49845;47.130;142.766;2024-03-06T00:18:44;13.15;;;4.32;;
63699;SDS011;49845;47.130;142.766;2024-03-06T00:21:17;11.50;;;5.15;;
63699;SDS011;49845;47.130;142.766;2024-03-06T00:23:50;10.20;;;4.50;;
63699;SDS011;49845;47.130;142.766;2024-03-06T00:26:24;16.60;;;5.30;;
63699;SDS011;49845;47.130;142.766;2024-03-06T00:28:58;14.45;;;4.60;;
63699;SDS011;49845;47.130;142.766;2024-03-06T00:31:31;12.18;;;5.57;;
63699;SDS011;49845;47.130;142.766;2024-03-06T00:34:04;11.43;;;4.50;;
63699;SDS011;49845;47.130;142.766;2024-03-06T00:36:37;11.38;;;4.80;;
63699;SDS011;49845;47.130;142.766;2024-03-06T00:39:10;12.02;;;4.95;;
63699;SDS011;49845;47.130;142.766;2024-03-06T00:41:44;12.52;;;4.65;;
63699;SDS011;49845;47.130;142.766;2024-03-06T00:44:18;10.05;;;4.70;;
63699;SDS011;49845;47.130;142.766;2024-03-06T00:46:51;12.68;;;4.60;;
63699;SDS011;49845;47.130;142.766;2024-03-06T00:49:23;9.57;;;4.97;;
63699;SDS011;49845;47.130;142.766;2024-03-06T00:51:55;18.27;;;5.40;;
63699;SDS011;49845;47.130;142.766;2024-03-06T00:54:28;18.02;;;5.75;;
63699;SDS011;49845;47.130;142.766;2024-03-06T00:57:02;9.90;;;5.40;;
63699;SDS011;49845;47.130;142.766;2024-03-06T00:59:36;16.48;;;6.75;;
63699;SDS011;49845;47.130;142.766;2024-03-06T01:02:09;13.15;;;6.80;;
63699;SDS011;49845;47.130;142.766;2024-03-06T01:04:41;15.68;;;6.70;;
63699;SDS011;49845;47.130;142.766;2024-03-06T01:07:14;12.77;;;6.88;;
63699;SDS011;49845;47.130;142.766;2024-03-06T01:09:47;23.02;;;6.35;;
63699;SDS011;49845;47.130;142.766;2024-03-06T01:12:20;11.77;;;6.07;;
63699;SDS011;49845;47.130;142.766;2024-03-06T01:14:55;18.65;;;6.43;;
63699;SDS011;49845;47.130;142.766;2024-03-06T01:17:28;13.18;;;5.80;;
63699;SDS011;49845;47.130;142.766;2024-03-06T01:20:01;18.48;;;6.75;;
63699;SDS011;49845;47.130;142.766;2024-03-06T01:22:35;16.95;;;8.38;;
63699;SDS011;49845;47.130;142.766;2024-03-06T01:25:07;14.90;;;7.43;;
63699;SDS011;49845;47.130;142.766;2024-03-06T01:27:40;19.40;;;7.57;;
63699;SDS011;49845;47.130;142.766;2024-03-06T01:30:15;18.20;;;9.35;;
63699;SDS011;49845;47.130;142.766;2024-03-06T01:32:48;22.08;;;9.13;;
63699;SDS011;49845;47.130;142.766;2024-03-06T01:35:21;17.67;;;8.70;;
63699;SDS011;49845;47.130;142.766;2024-03-06T01:37:53;18.85;;;9.18;;
63699;SDS011;49845;47.130;142.766;2024-03-06T01:40:26;22.77;;;8.73;;
63699;SDS011;49845;47.130;142.766;2024-03-06T01:42:59;20.95;;;9.38;;
63699;SDS011;49845;47.130;142.766;2024-03-06T01:45:34;15.02;;;8.40;;
63699;SDS011;49845;47.130;142.766;2024-03-06T01:48:08;15.02;;;6.65;;
63699;SDS011;49845;47.130;142.766;2024-03-06T01:50:41;14.23;;;6.70;;
63699;SDS011;49845;47.130;142.766;2024-03-06T01:53:14;14.63;;;5.68;;
63699;SDS011;49845;47.130;142.766;2024-03-06T01:55:49;11.10;;;4.40;;
63699;SDS011;49845;47.130;142.766;2024-03-06T01:58:21;13.32;;;5.00;;
63699;SDS011;49845;47.130;142.766;2024-03-06T02:00:57;11.95;;;4.75;;
63699;SDS011;49845;47.130;142.766;2024-03-06T02:03:29;14.82;;;5.60;;
63699;SDS011;49845;47.130;142.766;2024-03-06T02:06:04;9.93;;;4.72;;
63699;SDS011;49845;47.130;142.766;2024-03-06T02:08:37;7.75;;;4.30;;
63699;SDS011;49845;47.130;142.766;2024-03-06T02:11:10;13.32;;;5.38;;
63699;SDS011;49845;47.130;142.766;2024-03-06T02:13:45;9.55;;;5.10;;
63699;SDS011;49845;47.130;142.766;2024-03-06T02:16:19;7.63;;;3.97;;
63699;SDS011;49845;47.130;142.766;2024-03-06T02:18:52;13.73;;;5.28;;
63699;SDS011;49845;47.130;142.766;2024-03-06T02:21:27;14.45;;;6.38;;
63699;SDS011;49845;47.130;142.766;2024-03-06T02:24:00;11.95;;;4.97;;
63699;SDS011;49845;47.130;142.766;2024-03-06T02:26:33;16.65;;;7.63;;
63699;SDS011;49845;47.130;142.766;2024-03-06T02:29:08;11.52;;;4.25;;
63699;SDS011;49845;47.130;142.766;2024-03-06T02:31:42;9.35;;;4.13;;
63699;SDS011;49845;47.130;142.766;2024-03-06T02:34:14;11.15;;;4.95;;
63699;SDS011;49845;47.130;142.766;2024-03-06T02:36:48;10.23;;;4.32;;
63699;SDS011;49845;47.130;142.766;2024-03-06T02:39:21;9.80;;;3.90;;
63699;SDS011;49845;47.130;142.766;2024-03-06T02:41:54;12.07;;;4.28;;
63699;SDS011;49845;47.130;142.766;2024-03-06T02:44:27;12.10;;;4.70;;
63699;SDS011;49845;47.130;142.766;2024-03-06T02:47:00;11.38;;;4.10;;
63699;SDS011;49845;47.130;142.766;2024-03-06T02:49:32;11.75;;;5.03;;
63699;SDS011;49845;47.130;142.766;2024-03-06T02:52:07;9.73;;;4.40;;
63699;SDS011;49845;47.130;142.766;2024-03-06T02:54:41;11.07;;;5.60;;
63699;SDS011;49845;47.130;142.766;2024-03-06T02:57:14;10.73;;;4.43;;
63699;SDS011;49845;47.130;142.766;2024-03-06T02:59:47;10.13;;;4.75;;
63699;SDS011;49845;47.130;142.766;2024-03-06T03:02:20;14.90;;;4.20;;
63699;SDS011;49845;47.130;142.766;2024-03-06T03:04:53;6.45;;;3.80;;
63699;SDS011;49845;47.130;142.766;2024-03-06T03:07:28;14.40;;;4.75;;
63699;SDS011;49845;47.130;142.766;2024-03-06T03:10:00;9.07;;;4.30;;
63699;SDS011;49845;47.130;142.766;2024-03-06T03:12:34;10.80;;;4.60;;
63699;SDS011;49845;47.130;142.766;2024-03-06T03:15:09;11.23;;;4.97;;
63699;SDS011;49845;47.130;142.766;2024-03-06T03:17:42;9.23;;;4.13;;
63699;SDS011;49845;47.130;142.766;2024-03-06T03:20:15;10.25;;;3.95;;
63699;SDS011;49845;47.130;142.766;2024-03-06T03:22:51;6.88;;;4.13;;
63699;SDS011;49845;47.130;142.766;2024-03-06T03:25:24;8.45;;;3.63;;
63699;SDS011;49845;47.130;142.766;2024-03-06T03:27:57;7.90;;;3.95;;
63699;SDS011;49845;47.130;142.766;2024-03-06T03:30:30;10.32;;;4.35;;
63699;SDS011;49845;47.130;142.766;2024-03-06T03:33:03;10.00;;;4.10;;
63699;SDS011;49845;47.130;142.766;2024-03-06T03:35:37;10.85;;;4.10;;
63699;SDS011;49845;47.130;142.766;2024-03-06T03:38:11;8.35;;;4.10;;
63699;SDS011;49845;47.130;142.766;2024-03-06T03:40:44;8.82;;;3.65;;
63699;SDS011;49845;47.130;142.766;2024-03-06T03:43:16;9.85;;;3.25;;
63699;SDS011;49845;47.130;142.766;2024-03-06T03:45:49;8.23;;;3.40;;
63699;SDS011;49845;47.130;142.766;2024-03-06T03:48:22;10.95;;;3.90;;
63699;SDS011;49845;47.130;142.766;2024-03-06T03:50:55;6.45;;;3.58;;
63699;SDS011;49845;47.130;142.766;2024-03-06T03:53:30;11.68;;;3.40;;
63699;SDS011;49845;47.130;142.766;2024-03-06T03:56:03;7.60;;;3.63;;
63699;SDS011;49845;47.130;142.766;2024-03-06T03:58:37;9.40;;;3.80;;
63699;SDS011;49845;47.130;142.766;2024-03-06T04:01:10;9.30;;;3.83;;
63699;SDS011;49845;47.130;142.766;2024-03-06T04:03:43;7.45;;;3.60;;
63699;SDS011;49845;47.130;142.766;2024-03-06T04:06:17;10.60;;;4.20;;
63699;SDS011;49845;47.130;142.766;2024-03-06T04:08:51;8.32;;;3.28;;
63699;SDS011;49845;47.130;142.766;2024-03-06T04:11:24;8.93;;;3.70;;
63699;SDS011;49845;47.130;142.766;2024-03-06T04:13:57;11.55;;;3.47;;
63699;SDS011;49845;47.130;142.766;2024-03-06T04:16:30;5.78;;;3.25;;
63699;SDS011;49845;47.130;142.766;2024-03-06T04:19:02;7.97;;;3.88;;
63699;SDS011;49845;47.130;142.766;2024-03-06T04:21:35;6.38;;;2.85;;
63699;SDS011;49845;47.130;142.766;2024-03-06T04:24:14;4.60;;;2.47;;
63699;SDS011;49845;47.130;142.766;2024-03-06T04:26:47;4.10;;;2.10;;
63699;SDS011;49845;47.130;142.766;2024-03-06T04:29:20;4.40;;;2.15;;
63699;SDS011;49845;47.130;142.766;2024-03-06T04:31:53;8.23;;;2.30;;
63699;SDS011;49845;47.130;142.766;2024-03-06T04:34:26;2.92;;;1.85;;
63699;SDS011;49845;47.130;142.766;2024-03-06T04:36:59;2.80;;;1.90;;
63699;SDS011;49845;47.130;142.766;2024-03-06T04:39:34;8.65;;;2.28;;
63699;SDS011;49845;47.130;142.766;2024-03-06T04:42:07;3.67;;;2.20;;
63699;SDS011;49845;47.130;142.766;2024-03-06T04:44:39;3.80;;;2.10;;
63699;SDS011;49845;47.130;142.766;2024-03-06T04:47:13;8.35;;;3.15;;
63699;SDS011;49845;47.130;142.766;2024-03-06T04:49:45;9.13;;;4.07;;
63699;SDS011;49845;47.130;142.766;2024-03-06T04:52:18;11.18;;;4.03;;
63699;SDS011;49845;47.130;142.766;2024-03-06T04:54:52;6.70;;;3.42;;
63699;SDS011;49845;47.130;142.766;2024-03-06T04:57:26;8.88;;;3.33;;
63699;SDS011;49845;47.130;142.766;2024-03-06T04:59:59;10.05;;;3.92;;
63699;SDS011;49845;47.130;142.766;2024-03-06T05:02:34;6.75;;;3.28;;
63699;SDS011;49845;47.130;142.766;2024-03-06T05:05:23;8.02;;;3.60;;
63699;SDS011;49845;47.130;142.766;2024-03-06T05:08:12;6.30;;;2.58;;
63699;SDS011;49845;47.130;142.766;2024-03-06T05:11:02;6.32;;;2.80;;
63699;SDS011;49845;47.130;142.766;2024-03-06T05:13:53;7.00;;;2.70;;
63699;SDS011;49845;47.130;142.766;2024-03-06T05:16:41;4.22;;;2.40;;
63699;SDS011;49845;47.130;142.766;2024-03-06T05:19:30;5.18;;;2.83;;
63699;SDS011;49845;47.130;142.766;2024-03-06T05:22:19;6.22;;;2.50;;
63699;SDS011;49845;47.130;142.766;2024-03-06T05:25:07;3.50;;;2.13;;
63699;SDS011;49845;47.130;142.766;2024-03-06T05:27:56;5.20;;;2.80;;
63699;SDS011;49845;47.130;142.766;2024-03-06T05:30:43;7.90;;;2.40;;
63699;SDS011;49845;47.130;142.766;2024-03-06T05:33:30;4.55;;;2.47;;
63699;SDS011;49845;47.130;142.766;2024-03-06T05:36:17;6.10;;;2.50;;
63699;SDS011;49845;47.130;142.766;2024-03-06T05:39:05;9.10;;;2.38;;
63699;SDS011;49845;47.130;142.766;2024-03-06T05:41:59;5.38;;;2.65;;
63699;SDS011;49845;47.130;142.766;2024-03-06T05:44:50;7.22;;;2.75;;
63699;SDS011;49845;47.130;142.766;2024-03-06T05:47:39;9.20;;;3.55;;
63699;SDS011;49845;47.130;142.766;2024-03-06T05:50:26;8.45;;;4.45;;
63699;SDS011;49845;47.130;142.766;2024-03-06T05:53:13;9.40;;;4.03;;
63699;SDS011;49845;47.130;142.766;2024-03-06T05:56:00;8.57;;;4.68;;
63699;SDS011;49845;47.130;142.766;2024-03-06T05:58:47;7.03;;;3.60;;
63699;SDS011;49845;47.130;142.766;2024-03-06T06:01:19;6.22;;;4.00;;
63699;SDS011;49845;47.130;142.766;2024-03-06T06:03:50;11.98;;;4.32;;
63699;SDS011;49845;47.130;142.766;2024-03-06T06:06:20;7.38;;;3.78;;
63699;SDS011;49845;47.130;142.766;2024-03-06T06:08:51;8.07;;;4.05;;
63699;SDS011;49845;47.130;142.766;2024-03-06T06:11:21;10.80;;;4.45;;
63699;SDS011;49845;47.130;142.766;2024-03-06T06:13:52;5.72;;;3.80;;
63699;SDS011;49845;47.130;142.766;2024-03-06T06:16:24;9.70;;;4.43;;
63699;SDS011;49845;47.130;142.766;2024-03-06T06:18:55;9.25;;;4.20;;
63699;SDS011;49845;47.130;142.766;2024-03-06T06:21:25;14.48;;;5.40;;
63699;SDS011;49845;47.130;142.766;2024-03-06T06:23:56;11.10;;;5.88;;
63699;SDS011;49845;47.130;142.766;2024-03-06T06:26:26;13.02;;;5.88;;
63699;SDS011;49845;47.130;142.766;2024-03-06T06:28:56;17.20;;;6.15;;
63699;SDS011;49845;47.130;142.766;2024-03-06T06:31:29;10.48;;;4.80;;
63699;SDS011;49845;47.130;142.766;2024-03-06T06:34:00;10.52;;;4.93;;
63699;SDS011;49845;47.130;142.766;2024-03-06T06:36:30;9.60;;;4.10;;
63699;SDS011;49845;47.130;142.766;2024-03-06T06:39:00;10.85;;;4.30;;
63699;SDS011;49845;47.130;142.766;2024-03-06T06:41:33;10.57;;;4.40;;
63699;SDS011;49845;47.130;142.766;2024-03-06T06:44:04;6.68;;;4.43;;
63699;SDS011;49845;47.130;142.766;2024-03-06T06:46:36;7.43;;;4.20;;
63699;SDS011;49845;47.130;142.766;2024-03-06T06:49:08;11.38;;;3.95;;
63699;SDS011;49845;47.130;142.766;2024-03-06T06:51:38;8.88;;;3.95;;
63699;SDS011;49845;47.130;142.766;2024-03-06T06:54:09;11.02;;;4.32;;
63699;SDS011;49845;47.130;142.766;2024-03-06T06:56:39;9.38;;;4.22;;
63699;SDS011;49845;47.130;142.766;2024-03-06T06:59:09;7.55;;;4.32;;
63699;SDS011;49845;47.130;142.766;2024-03-06T07:01:42;7.25;;;3.80;;
63699;SDS011;49845;47.130;142.766;2024-03-06T07:04:13;9.57;;;3.90;;
63699;SDS011;49845;47.130;142.766;2024-03-06T07:06:47;8.32;;;4.78;;
63699;SDS011;49845;47.130;142.766;2024-03-06T07:09:18;9.50;;;4.85;;
63699;SDS011;49845;47.130;142.766;2024-03-06T07:11:49;14.88;;;4.95;;
63699;SDS011;49845;47.130;142.766;2024-03-06T07:14:19;12.27;;;4.47;;
63699;SDS011;49845;47.130;142.766;2024-03-06T07:16:51;13.00;;;3.92;;
63699;SDS011;49845;47.130;142.766;2024-03-06T07:19:22;8.90;;;4.20;;
63699;SDS011;49845;47.130;142.766;2024-03-06T07:21:53;7.32;;;4.30;;
63699;SDS011;49845;47.130;142.766;2024-03-06T07:24:23;12.43;;;4.40;;
63699;SDS011;49845;47.130;142.766;2024-03-06T07:26:53;7.63;;;4.40;;
63699;SDS011;49845;47.130;142.766;2024-03-06T07:29:24;10.75;;;4.65;;
63699;SDS011;49845;47.130;142.766;2024-03-06T07:31:56;13.70;;;5.50;;
63699;SDS011;49845;47.130;142.766;2024-03-06T07:34:28;10.88;;;5.68;;
63699;SDS011;49845;47.130;142.766;2024-03-06T07:36:58;8.18;;;4.60;;
63699;SDS011;49845;47.130;142.766;2024-03-06T07:39:32;12.48;;;4.40;;
63699;SDS011;49845;47.130;142.766;2024-03-06T07:42:03;10.00;;;5.63;;
63699;SDS011;49845;47.130;142.766;2024-03-06T07:44:33;9.30;;;4.20;;
63699;SDS011;49845;47.130;142.766;2024-03-06T07:47:06;7.97;;;3.92;;
63699;SDS011;49845;47.130;142.766;2024-03-06T07:49:36;7.93;;;3.90;;
63699;SDS011;49845;47.130;142.766;2024-03-06T07:52:07;11.30;;;4.63;;
63699;SDS011;49845;47.130;142.766;2024-03-06T07:54:37;8.75;;;4.60;;
63699;SDS011;49845;47.130;142.766;2024-03-06T07:57:08;9.88;;;3.97;;
63699;SDS011;49845;47.130;142.766;2024-03-06T07:59:39;7.15;;;4.13;;
63699;SDS011;49845;47.130;142.766;2024-03-06T08:02:11;8.88;;;4.50;;
63699;SDS011;49845;47.130;142.766;2024-03-06T08:04:41;7.82;;;3.72;;
63699;SDS011;49845;47.130;142.766;2024-03-06T08:07:12;10.98;;;4.13;;
63699;SDS011;49845;47.130;142.766;2024-03-06T08:09:42;6.75;;;4.00;;
63699;SDS011;49845;47.130;142.766;2024-03-06T08:12:13;13.13;;;4.53;;
63699;SDS011;49845;47.130;142.766;2024-03-06T08:14:43;6.72;;;4.00;;
63699;SDS011;49845;47.130;142.766;2024-03-06T08:17:15;12.15;;;4.30;;
63699;SDS011;49845;47.130;142.766;2024-03-06T08:19:46;12.40;;;4.75;;
63699;SDS011;49845;47.130;142.766;2024-03-06T08:22:16;9.50;;;4.97;;
63699;SDS011;49845;47.130;142.766;2024-03-06T08:24:47;9.77;;;4.40;;
63699;SDS011;49845;47.130;142.766;2024-03-06T08:27:17;10.15;;;4.53;;
63699;SDS011;49845;47.130;142.766;2024-03-06T08:29:48;9.15;;;4.00;;
63699;SDS011;49845;47.130;142.766;2024-03-06T08:32:22;13.38;;;4.38;;
63699;SDS011;49845;47.130;142.766;2024-03-06T08:34:52;13.48;;;4.22;;
63699;SDS011;49845;47.130;142.766;2024-03-06T08:37:23;8.38;;;4.72;;
63699;SDS011;49845;47.130;142.766;2024-03-06T08:39:53;7.97;;;3.90;;
63699;SDS011;49845;47.130;142.766;2024-03-06T08:42:24;10.60;;;4.32;;
63699;SDS011;49845;47.130;142.766;2024-03-06T08:44:54;10.57;;;5.15;;
63699;SDS011;49845;47.130;142.766;2024-03-06T08:47:27;13.80;;;5.85;;
63699;SDS011;49845;47.130;142.766;2024-03-06T08:49:58;10.02;;;4.85;;
63699;SDS011;49845;47.130;142.766;2024-03-06T08:52:31;10.25;;;6.85;;
63699;SDS011;49845;47.130;142.766;2024-03-06T08:55:02;18.48;;;9.25;;
63699;SDS011;49845;47.130;142.766;2024-03-06T08:57:33;18.17;;;8.10;;
63699;SDS011;49845;47.130;142.766;2024-03-06T09:00:05;15.50;;;6.55;;
63699;SDS011;49845;47.130;142.766;2024-03-06T09:02:40;11.68;;;6.00;;
63699;SDS011;49845;47.130;142.766;2024-03-06T09:05:11;15.32;;;6.97;;
63699;SDS011;49845;47.130;142.766;2024-03-06T09:07:42;13.98;;;5.20;;
63699;SDS011;49845;47.130;142.766;2024-03-06T09:10:13;10.35;;;5.03;;
63699;SDS011;49845;47.130;142.766;2024-03-06T09:12:43;13.98;;;5.55;;
63699;SDS011;49845;47.130;142.766;2024-03-06T09:15:14;12.93;;;5.32;;
63699;SDS011;49845;47.130;142.766;2024-03-06T09:17:48;11.25;;;6.10;;
63699;SDS011;49845;47.130;142.766;2024-03-06T09:20:18;11.20;;;5.90;;
63699;SDS011;49845;47.130;142.766;2024-03-06T09:22:52;14.32;;;6.30;;
63699;SDS011;49845;47.130;142.766;2024-03-06T09:25:24;14.95;;;6.60;;
63699;SDS011;49845;47.130;142.766;2024-03-06T09:27:56;20.63;;;7.47;;
63699;SDS011;49845;47.130;142.766;2024-03-06T09:30:27;15.38;;;6.88;;
63699;SDS011;49845;47.130;142.766;2024-03-06T09:32:59;15.75;;;6.97;;
63699;SDS011;49845;47.130;142.766;2024-03-06T09:35:30;15.18;;;7.38;;
63699;SDS011;49845;47.130;142.766;2024-03-06T09:38:01;15.20;;;7.03;;
63699;SDS011;49845;47.130;142.766;2024-03-06T09:40:31;20.75;;;7.03;;
63699;SDS011;49845;47.130;142.766;2024-03-06T09:43:02;16.05;;;7.95;;
63699;SDS011;49845;47.130;142.766;2024-03-06T09:45:34;23.27;;;8.05;;
63699;SDS011;49845;47.130;142.766;2024-03-06T09:48:07;19.13;;;7.63;;
63699;SDS011;49845;47.130;142.766;2024-03-06T09:50:39;14.25;;;6.80;;
63699;SDS011;49845;47.130;142.766;2024-03-06T09:53:14;14.10;;;6.80;;
63699;SDS011;49845;47.130;142.766;2024-03-06T09:55:46;16.30;;;7.78;;
63699;SDS011;49845;47.130;142.766;2024-03-06T09:58:17;20.48;;;7.07;;
63699;SDS011;49845;47.130;142.766;2024-03-06T10:00:48;18.23;;;7.60;;
63699;SDS011;49845;47.130;142.766;2024-03-06T10:03:22;15.48;;;7.53;;
63699;SDS011;49845;47.130;142.766;2024-03-06T10:05:53;15.13;;;7.28;;
63699;SDS011;49845;47.130;142.766;2024-03-06T10:08:25;13.18;;;7.10;;
63699;SDS011;49845;47.130;142.766;2024-03-06T10:10:56;14.18;;;7.22;;
63699;SDS011;49845;47.130;142.766;2024-03-06T10:13:26;14.18;;;7.07;;
63699;SDS011;49845;47.130;142.766;2024-03-06T10:15:58;16.88;;;6.50;;
63699;SDS011;49845;47.130;142.766;2024-03-06T10:18:31;31.80;;;13.27;;
63699;SDS011;49845;47.130;142.766;2024-03-06T10:21:02;18.45;;;11.93;;
63699;SDS011;49845;47.130;142.766;2024-03-06T10:23:33;19.10;;;9.57;;
63699;SDS011;49845;47.130;142.766;2024-03-06T10:26:07;13.88;;;7.32;;
63699;SDS011;49845;47.130;142.766;2024-03-06T10:28:37;15.57;;;6.72;;
63699;SDS011;49845;47.130;142.766;2024-03-06T10:31:14;12.32;;;6.55;;
63699;SDS011;49845;47.130;142.766;2024-03-06T10:33:46;21.50;;;10.30;;
63699;SDS011;49845;47.130;142.766;2024-03-06T10:36:16;94.72;;;32.88;;
63699;SDS011;49845;47.130;142.766;2024-03-06T10:38:47;71.18;;;27.02;;
63699;SDS011;49845;47.130;142.766;2024-03-06T10:41:21;64.47;;;26.00;;
63699;SDS011;49845;47.130;142.766;2024-03-06T10:43:54;85.38;;;26.27;;
63699;SDS011;49845;47.130;142.766;2024-03-06T10:46:25;145.95;;;37.65;;
63699;SDS011;49845;47.130;142.766;2024-03-06T10:48:59;95.82;;;28.80;;
63699;SDS011;49845;47.130;142.766;2024-03-06T10:51:32;50.58;;;17.02;;
63699;SDS011;49845;47.130;142.766;2024-03-06T10:54:03;63.13;;;15.85;;
63699;SDS011;49845;47.130;142.766;2024-03-06T10:56:38;39.85;;;12.25;;
63699;SDS011;49845;47.130;142.766;2024-03-06T10:59:11;11.13;;;6.50;;
63699;SDS011;49845;47.130;142.766;2024-03-06T11:01:43;16.83;;;5.70;;
63699;SDS011;49845;47.130;142.766;2024-03-06T11:04:18;11.38;;;5.45;;
63699;SDS011;49845;47.130;142.766;2024-03-06T11:06:48;9.82;;;5.18;;
63699;SDS011;49845;47.130;142.766;2024-03-06T11:09:19;8.20;;;4.85;;
63699;SDS011;49845;47.130;142.766;2024-03-06T11:11:50;13.02;;;5.35;;
63699;SDS011;49845;47.130;142.766;2024-03-06T11:14:21;11.38;;;5.30;;
63699;SDS011;49845;47.130;142.766;2024-03-06T11:16:56;8.20;;;4.22;;
63699;SDS011;49845;47.130;142.766;2024-03-06T11:20:07;11.23;;;4.82;;
63699;SDS011;49845;47.130;142.766;2024-03-06T11:25:56;11.90;;;6.63;;
63699;SDS011;49845;47.130;142.766;2024-03-06T11:28:31;12.45;;;7.75;;
63699;SDS011;49845;47.130;142.766;2024-03-06T11:31:03;9.70;;;6.65;;
63699;SDS011;49845;47.130;142.766;2024-03-06T11:33:37;7.78;;;4.70;;
63699;SDS011;49845;47.130;142.766;2024-03-06T11:36:16;6.82;;;5.05;;
63699;SDS011;49845;47.130;142.766;2024-03-06T11:38:53;9.27;;;4.53;;
63699;SDS011;49845;47.130;142.766;2024-03-06T11:41:28;5.80;;;4.25;;
63699;SDS011;49845;47.130;142.766;2024-03-06T11:43:59;6.63;;;4.50;;
63699;SDS011;49845;47.130;142.766;2024-03-06T11:46:41;8.00;;;4.68;;
63699;SDS011;49845;47.130;142.766;2024-03-06T11:49:15;5.88;;;4.10;;
63699;SDS011;49845;47.130;142.766;2024-03-06T11:51:50;5.05;;;3.83;;
63699;SDS011;49845;47.130;142.766;2024-03-06T11:54:20;5.30;;;4.20;;
63699;SDS011;49845;47.130;142.766;2024-03-06T11:56:54;5.90;;;4.28;;
63699;SDS011;49845;47.130;142.766;2024-03-06T11:59:26;6.97;;;4.07;;
63699;SDS011;49845;47.130;142.766;2024-03-06T12:01:58;10.27;;;4.38;;
63699;SDS011;49845;47.130;142.766;2024-03-06T12:04:31;6.07;;;4.47;;
63699;SDS011;49845;47.130;142.766;2024-03-06T12:07:05;7.93;;;5.47;;
63699;SDS011;49845;47.130;142.766;2024-03-06T12:09:38;11.98;;;6.32;;
63699;SDS011;49845;47.130;142.766;2024-03-06T12:12:10;17.63;;;5.57;;
63699;SDS011;49845;47.130;142.766;2024-03-06T12:14:40;6.82;;;3.83;;
63699;SDS011;49845;47.130;142.766;2024-03-06T12:17:11;5.72;;;4.10;;
63699;SDS011;49845;47.130;142.766;2024-03-06T12:19:43;10.93;;;3.90;;
63699;SDS011;49845;47.130;142.766;2024-03-06T12:22:16;8.63;;;4.13;;
63699;SDS011;49845;47.130;142.766;2024-03-06T12:24:47;9.18;;;4.10;;
63699;SDS011;49845;47.130;142.766;2024-03-06T12:27:28;21.63;;;7.65;;
63699;SDS011;49845;47.130;142.766;2024-03-06T12:30:05;29.65;;;7.70;;
63699;SDS011;49845;47.130;142.766;2024-03-06T12:32:40;16.90;;;6.38;;
63699;SDS011;49845;47.130;142.766;2024-03-06T12:35:11;12.90;;;6.88;;
63699;SDS011;49845;47.130;142.766;2024-03-06T12:37:43;22.25;;;7.97;;
63699;SDS011;49845;47.130;142.766;2024-03-06T12:40:14;21.95;;;8.95;;
63699;SDS011;49845;47.130;142.766;2024-03-06T12:42:44;20.20;;;8.88;;
63699;SDS011;49845;47.130;142.766;2024-03-06T12:45:15;18.00;;;8.75;;
63699;SDS011;49845;47.130;142.766;2024-03-06T12:47:47;22.13;;;9.35;;
63699;SDS011;49845;47.130;142.766;2024-03-06T12:50:17;23.38;;;8.90;;
63699;SDS011;49845;47.130;142.766;2024-03-06T12:52:50;27.95;;;11.23;;
63699;SDS011;49845;47.130;142.766;2024-03-06T12:55:20;21.92;;;9.80;;
63699;SDS011;49845;47.130;142.766;2024-03-06T12:57:51;19.75;;;9.73;;
63699;SDS011;49845;47.130;142.766;2024-03-06T13:00:21;15.98;;;8.55;;
63699;SDS011;49845;47.130;142.766;2024-03-06T13:02:52;20.88;;;7.45;;
63699;SDS011;49845;47.130;142.766;2024-03-06T13:05:22;25.15;;;7.70;;
63699;SDS011;49845;47.130;142.766;2024-03-06T13:07:54;19.67;;;7.43;;
63699;SDS011;49845;47.130;142.766;2024-03-06T13:10:25;20.80;;;6.77;;
63699;SDS011;49845;47.130;142.766;2024-03-06T13:12:55;17.85;;;5.75;;
63699;SDS011;49845;47.130;142.766;2024-03-06T13:15:25;13.80;;;6.43;;
63699;SDS011;49845;47.130;142.766;2024-03-06T13:17:56;31.48;;;14.07;;
63699;SDS011;49845;47.130;142.766;2024-03-06T13:20:27;27.55;;;14.95;;
63699;SDS011;49845;47.130;142.766;2024-03-06T13:22:59;21.30;;;10.95;;
63699;SDS011;49845;47.130;142.766;2024-03-06T13:25:29;13.77;;;8.10;;
63699;SDS011;49845;47.130;142.766;2024-03-06T13:28:00;10.45;;;5.82;;
63699;SDS011;49845;47.130;142.766;2024-03-06T13:30:31;12.63;;;6.82;;
63699;SDS011;49845;47.130;142.766;2024-03-06T13:33:01;9.70;;;5.63;;
63699;SDS011;49845;47.130;142.766;2024-03-06T13:35:33;6.82;;;5.22;;
63699;SDS011;49845;47.130;142.766;2024-03-06T13:38:05;9.88;;;4.35;;
63699;SDS011;49845;47.130;142.766;2024-03-06T13:40:35;9.38;;;4.72;;
63699;SDS011;49845;47.130;142.766;2024-03-06T13:43:07;8.85;;;4.80;;
63699;SDS011;49845;47.130;142.766;2024-03-06T13:45:38;5.72;;;4.18;;
63699;SDS011;49845;47.130;142.766;2024-03-06T13:48:19;50.13;;;15.13;;
63699;SDS011;49845;47.130;142.766;2024-03-06T13:50:50;32.63;;;10.65;;
63699;SDS011;49845;47.130;142.766;2024-03-06T13:53:22;6.70;;;4.50;;
63699;SDS011;49845;47.130;142.766;2024-03-06T13:55:52;5.85;;;3.95;;
63699;SDS011;49845;47.130;142.766;2024-03-06T13:58:23;16.38;;;10.43;;
63699;SDS011;49845;47.130;142.766;2024-03-06T14:00:54;13.13;;;8.15;;
63699;SDS011;49845;47.130;142.766;2024-03-06T14:03:24;10.15;;;5.45;;
63699;SDS011;49845;47.130;142.766;2024-03-06T14:05:55;7.68;;;4.80;;
63699;SDS011;49845;47.130;142.766;2024-03-06T14:08:27;8.48;;;5.13;;
63699;SDS011;49845;47.130;142.766;2024-03-06T14:10:58;8.15;;;5.18;;
63699;SDS011;49845;47.130;142.766;2024-03-06T14:13:29;4.60;;;4.07;;
63699;SDS011;49845;47.130;142.766;2024-03-06T14:15:59;12.48;;;5.25;;
63699;SDS011;49845;47.130;142.766;2024-03-06T14:18:29;8.52;;;5.90;;
63699;SDS011;49845;47.130;142.766;2024-03-06T14:21:00;7.97;;;6.28;;
63699;SDS011;49845;47.130;142.766;2024-03-06T14:23:32;10.40;;;5.47;;
63699;SDS011;49845;47.130;142.766;2024-03-06T14:26:03;8.10;;;4.45;;
63699;SDS011;49845;47.130;142.766;2024-03-06T14:28:33;9.48;;;4.53;;
63699;SDS011;49845;47.130;142.766;2024-03-06T14:31:05;13.63;;;5.00;;
63699;SDS011;49845;47.130;142.766;2024-03-06T14:33:39;15.20;;;5.93;;
63699;SDS011;49845;47.130;142.766;2024-03-06T14:36:10;17.95;;;4.88;;
63699;SDS011;49845;47.130;142.766;2024-03-06T14:38:43;11.93;;;4.40;;
63699;SDS011;49845;47.130;142.766;2024-03-06T14:41:14;9.60;;;4.40;;
63699;SDS011;49845;47.130;142.766;2024-03-06T14:43:44;5.93;;;4.00;;
63699;SDS011;49845;47.130;142.766;2024-03-06T14:46:15;6.90;;;4.35;;
63699;SDS011;49845;47.130;142.766;2024-03-06T14:48:46;7.63;;;4.30;;
63699;SDS011;49845;47.130;142.766;2024-03-06T14:51:16;8.85;;;4.53;;